Meteo Giornale » Osservazioni meteo Giappone » Takamatsu
ore: 04:00 - Osservazioni Meteo Takamatsu
Lat. 34° 13' N Lon. 134° 1' E Alt. 185 metri s.l.m.
22 °C
Sereno
Temp. 24 Ore
22 °C
34 °C
Sud-Est
16.7 Km/h
Dew point 20 °C
Umidità 88 %
Visibilità 10 Km
Il sole sorge alle ore 05:37
Il sole tramonta alle ore 18:29
| Data e Ora | Cielo e Fenomeni | T °C | DP °C | Um. % | Pres. hPa | Vis. km | Vento km/h | |
|---|---|---|---|---|---|---|---|---|
| Oggi h: 04:00 | Sereno | 22 | 20 | 88 | 1014 | 10 | SE 16.7 | |
| Oggi h: 03:00 | Sereno | 24 | 20 | 78 | 1014 | 10 | S/SE 7.4 | |
| Oggi h: 02:00 | Sereno | 24 | 21 | 83 | 1014 | 10 | N 5.5 | |
| Oggi h: 01:00 | Sereno | 24 | 21 | 83 | 1014 | 10 | S/SE 7.4 | |
| Oggi h: 00:00 | Sereno | 26 | 21 | 73 | 1014 | 10 | S/SE 9.3 | |
| Ieri h: 23:00 | Sereno | 25 | 22 | 83 | 1014 | 10 | S/SE 7.4 | |
| Ieri h: 22:00 | Sereno | 26 | 22 | 78 | 1014 | 10 | SE 11.1 | |
| Ieri h: 21:00 | Nuvoloso | 28 | 22 | 69 | 1014 | 10 | SO 7.4 | |
| Ieri h: 20:00 | Molto Nuvoloso | 29 | 22 | 66 | 1014 | 10 | SO 9.3 | |
| Ieri h: 19:00 | Molto Nuvoloso | 30 | 21 | 58 | 1013 | 10 | N 5.5 | |
| Ieri h: 18:00 | Molto Nuvoloso | 31 | 21 | 55 | 1013 | 10 | NO 9.3 | |
| Ieri h: 17:00 | Molto Nuvoloso | 32 | 20 | 49 | 1012 | 10 | N 9.3 | |
| Ieri h: 16:00 | Nuvoloso | 34 | 21 | 46 | 1012 | 10 | N 13 | |
| Ieri h: 15:00 | Nuvoloso | 34 | 22 | 49 | 1012 | 10 | N 13 | |
| Ieri h: 14:00 | Nuvoloso | 33 | 23 | 55 | 1012 | 10 | N/NE 11.1 | |
| Ieri h: 13:00 | Nuvoloso | 33 | 23 | 55 | 1013 | 10 | N/NE 11.1 | |
| Ieri h: 12:00 | Nuvoloso | 32 | 21 | 52 | 1013 | 10 | N/NO 7.4 | |
| Ieri h: 11:00 | Poco Nuvoloso | 33 | 23 | 55 | 1014 | 10 | N 5.5 | |
| Ieri h: 10:00 | Poco Nuvoloso | 31 | 22 | 58 | 1014 | 10 | N 3.7 | |
| Ieri h: 09:00 | Poco Nuvoloso | 29 | 23 | 70 | 1014 | 10 | N 5.5 | |
| Ieri h: 08:00 | Poco Nuvoloso | 28 | 24 | 78 | 1014 | 10 | N 1.8 | |
| Ieri h: 07:00 | Poco Nuvoloso | 26 | 23 | 83 | 1014 | 10 | SE 7.4 | |
| Ieri h: 06:00 | Sereno | 23 | 23 | 100 | 1014 | 10 | S/SE 9.3 | |



